KCHA/CHA METAR and TAF weather

Enter ICAO airport designator
Station Type Date Time Source
KCHA METAR 2019/06/24 22:53 UTC NOAA

KCHA 242253Z 00000KT 10SM BKN040 BKN250 28/21 A2989 RMK AO2 SLP112 T02830206 $


Station Type Date Time Source
KCHA Decoded METAR 2019/06/24 22:53 UTC NOAA

LOVELL FIELD, TN, United States (KCHA) 35-02N 085-12W 210M
Jun 24, 2019 - 06:53 PM EDT / 2019.06.24 2253 UTC
Wind: Calm:0
Visibility: 10 mile(s):0
Sky conditions: mostly cloudy
Temperature: 82.9 F (28.3 C)
Dew Point: 69.1 F (20.6 C)
Relative Humidity: 63%
Pressure (altimeter): 29.89 in. Hg (1012 hPa)
ob: KCHA 242253Z 00000KT 10SM BKN040 BKN250 28/21 A2989 RMK AO2 SLP112 T02830206
cycle: 23

Station Type Date Time Source
KCHA TAF 2019/06/24 22:06 UTC NOAA

TAF
AMD KCHA 242204Z 2422/2518 23012G20KT P6SM VCSH SCT040 BKN060 BKN250
FM242300 26010KT P6SM SCT040 BKN100
FM250100 27003KT P6SM SCT250

Example: see airport list